Time,TemperatureF,DewpointF,PressureIn,WindDirection,WindDirectionDegrees,WindSpeedMPH,WindSpeedGustMPH,Humidity,HourlyPrecipIn,Conditions,Clouds,dailyrainin,SoftwareType,DateUTC
2013-07-25 00:04:00,66.7,54.6,29.28,SSE,158,0.0,0.0,65,0.00,,---,0.00,VWS V13.01,2013-07-25 05:04:00,
2013-07-25 00:09:00,66.7,54.6,29.28,SSE,158,0.0,0.0,65,0.00,,---,0.00,VWS V13.01,2013-07-25 05:09:00,
2013-07-25 00:14:00,66.5,54.4,29.28,SSE,158,0.0,0.0,65,0.00,,---,0.00,VWS V13.01,2013-07-25 05:14:00,
2013-07-25 00:19:00,66.3,54.2,29.28,SSE,158,0.0,0.0,65,0.00,,---,0.00,VWS V13.01,2013-07-25 05:19:00,
2013-07-25 00:24:00,66.2,54.5,29.28,SSE,158,0.0,0.0,66,0.00,,---,0.00,VWS V13.01,2013-07-25 05:24:00,
2013-07-25 00:29:00,66.0,54.3,29.27,SSE,158,0.0,0.0,66,0.00,,---,0.00,VWS V13.01,2013-07-25 05:29:00,
2013-07-25 00:34:00,66.0,54.3,29.28,SSE,158,0.0,0.0,66,0.00,,---,0.00,VWS V13.01,2013-07-25 05:34:00,
2013-07-25 00:39:00,66.0,54.3,29.28,SSE,158,0.0,0.0,66,0.00,,---,0.00,VWS V13.01,2013-07-25 05:39:00,
2013-07-25 00:44:00,65.8,54.1,29.28,SSE,158,0.0,0.0,66,0.00,,---,0.00,VWS V13.01,2013-07-25 05:44:00,
2013-07-25 00:49:00,65.6,54.4,29.28,SSE,158,0.0,0.0,67,0.00,,---,0.00,VWS V13.01,2013-07-25 05:49:00,
2013-07-25 00:54:00,65.4,53.8,29.28,SSE,158,0.0,0.0,66,0.00,,---,0.00,VWS V13.01,2013-07-25 05:54:00,
2013-07-25 00:59:00,65.4,54.2,29.28,SSE,158,0.0,0.0,67,0.00,,---,0.00,VWS V13.01,2013-07-25 05:59:00,
2013-07-25 01:04:00,65.3,54.1,29.28,SSE,158,0.0,0.0,67,0.00,,---,0.00,VWS V13.01,2013-07-25 06:04:00,
2013-07-25 01:09:00,65.1,53.9,29.28,SSE,158,0.0,0.0,67,0.00,,---,0.00,VWS V13.01,2013-07-25 06:09:00,
2013-07-25 01:14:00,65.1,53.9,29.28,SSE,158,0.0,0.0,67,0.00,,---,0.00,VWS V13.01,2013-07-25 06:14:00,
2013-07-25 01:19:00,64.9,54.1,29.27,SSE,158,0.0,0.0,68,0.00,,---,0.00,VWS V13.01,2013-07-25 06:19:00,
2013-07-25 01:24:00,64.9,54.1,29.27,SSE,158,0.0,0.0,68,0.00,,---,0.00,VWS V13.01,2013-07-25 06:24:00,
2013-07-25 01:29:00,64.7,53.9,29.27,SSE,158,0.0,0.0,68,0.00,,---,0.00,VWS V13.01,2013-07-25 06:29:00,
2013-07-25 01:34:00,64.7,54.3,29.27,SSE,158,0.0,0.0,69,0.00,,---,0.00,VWS V13.01,2013-07-25 06:34:00,
2013-07-25 01:39:00,64.5,54.1,29.27,SSE,158,0.0,0.0,69,0.00,,---,0.00,VWS V13.01,2013-07-25 06:39:00,
2013-07-25 01:44:00,64.5,54.1,29.27,SSE,158,0.0,0.0,69,0.00,,---,0.00,VWS V13.01,2013-07-25 06:44:00,
2013-07-25 01:49:00,64.2,53.8,29.27,SSE,158,0.0,0.0,69,0.00,,---,0.00,VWS V13.01,2013-07-25 06:49:00,
2013-07-25 01:54:00,64.2,53.8,29.27,SSE,158,0.0,0.0,69,0.00,,---,0.00,VWS V13.01,2013-07-25 06:54:00,
2013-07-25 01:59:00,64.2,53.8,29.27,SSE,158,0.0,0.0,69,0.00,,---,0.00,VWS V13.01,2013-07-25 06:59:00,
2013-07-25 02:04:00,64.0,53.6,29.27,SSE,158,0.0,0.0,69,0.00,,---,0.00,VWS V13.01,2013-07-25 07:04:00,
2013-07-25 02:09:00,64.0,53.6,29.28,SSE,158,0.0,0.0,69,0.00,,---,0.00,VWS V13.01,2013-07-25 07:09:00,
2013-07-25 02:14:00,64.0,54.0,29.27,SSE,158,0.0,0.0,70,0.00,,---,0.00,VWS V13.01,2013-07-25 07:14:00,
2013-07-25 02:19:00,63.8,53.8,29.27,SSE,158,0.0,0.0,70,0.00,,---,0.00,VWS V13.01,2013-07-25 07:19:00,
2013-07-25 02:24:00,63.6,53.7,29.27,SSE,158,0.0,0.0,70,0.00,,---,0.00,VWS V13.01,2013-07-25 07:24:00,
2013-07-25 02:29:00,63.6,54.0,29.27,SSE,158,0.0,0.0,71,0.00,,---,0.00,VWS V13.01,2013-07-25 07:29:00,
2013-07-25 02:34:00,63.5,53.9,29.27,SSE,158,0.0,0.0,71,0.00,,---,0.00,VWS V13.01,2013-07-25 07:34:00,
2013-07-25 02:39:00,63.5,54.3,29.28,SSE,158,0.0,0.0,72,0.00,,---,0.00,VWS V13.01,2013-07-25 07:39:00,
2013-07-25 02:44:00,63.3,54.1,29.28,SSE,158,0.0,0.0,72,0.00,,---,0.00,VWS V13.01,2013-07-25 07:44:00,
2013-07-25 02:49:00,63.3,54.1,29.28,SSE,158,0.0,0.0,72,0.00,,---,0.00,VWS V13.01,2013-07-25 07:49:00,
2013-07-25 02:54:00,63.1,53.9,29.26,SSE,158,0.0,0.0,72,0.00,,---,0.00,VWS V13.01,2013-07-25 07:54:00,
2013-07-25 02:59:00,63.1,53.9,29.26,SSE,158,0.0,0.0,72,0.00,,---,0.00,VWS V13.01,2013-07-25 07:59:00,
2013-07-25 03:04:00,63.1,53.9,29.26,SSE,158,0.0,0.0,72,0.00,,---,0.00,VWS V13.01,2013-07-25 08:04:00,
2013-07-25 03:09:00,62.9,54.1,29.26,SSE,158,0.0,0.0,73,0.00,,---,0.00,VWS V13.01,2013-07-25 08:09:00,
2013-07-25 03:14:00,62.9,54.1,29.27,SSE,158,0.0,0.0,73,0.00,,---,0.00,VWS V13.01,2013-07-25 08:14:00,
2013-07-25 03:19:00,62.7,53.9,29.27,SSE,158,0.0,0.0,73,0.00,,---,0.00,VWS V13.01,2013-07-25 08:19:00,
2013-07-25 03:25:00,62.7,53.9,29.26,SSE,158,0.0,0.0,73,0.00,,---,0.00,VWS V13.01,2013-07-25 08:25:00,
2013-07-25 03:30:00,62.7,53.9,29.25,SSE,158,0.0,0.0,73,0.00,,---,0.00,VWS V13.01,2013-07-25 08:30:00,
2013-07-25 03:35:00,62.6,53.8,29.26,SSE,158,0.0,0.0,73,0.00,,---,0.00,VWS V13.01,2013-07-25 08:35:00,
2013-07-25 03:40:00,62.4,54.0,29.26,SSE,158,0.0,0.0,74,0.00,,---,0.00,VWS V13.01,2013-07-25 08:40:00,
2013-07-25 03:45:00,62.4,54.0,29.26,SSE,158,0.0,0.0,74,0.00,,---,0.00,VWS V13.01,2013-07-25 08:45:00,
2013-07-25 03:50:00,62.4,54.0,29.25,SSE,158,0.0,0.0,74,0.00,,---,0.00,VWS V13.01,2013-07-25 08:50:00,
2013-07-25 03:55:00,62.4,54.0,29.25,SSE,158,0.0,0.0,74,0.00,,---,0.00,VWS V13.01,2013-07-25 08:55:00,
2013-07-25 04:00:00,62.4,54.4,29.25,SSE,158,0.0,0.0,75,0.00,,---,0.00,VWS V13.01,2013-07-25 09:00:00,
2013-07-25 04:05:00,62.2,54.2,29.25,SSE,158,0.0,0.0,75,0.00,,---,0.00,VWS V13.01,2013-07-25 09:05:00,
2013-07-25 04:10:00,62.2,54.2,29.25,SSE,158,0.0,0.0,75,0.00,,---,0.00,VWS V13.01,2013-07-25 09:10:00,
2013-07-25 04:15:00,62.2,54.2,29.25,SSE,158,0.0,0.0,75,0.00,,---,0.00,VWS V13.01,2013-07-25 09:15:00,
2013-07-25 04:20:00,62.2,54.2,29.25,SSE,158,0.0,0.0,75,0.00,,---,0.00,VWS V13.01,2013-07-25 09:20:00,
2013-07-25 04:25:00,62.2,54.2,29.25,SSE,158,0.0,0.0,75,0.00,,---,0.00,VWS V13.01,2013-07-25 09:25:00,
2013-07-25 04:30:00,62.0,54.0,29.25,SSE,158,0.0,0.0,75,0.00,,---,0.00,VWS V13.01,2013-07-25 09:30:00,
2013-07-25 04:35:00,62.0,54.0,29.26,SSE,158,0.0,0.0,75,0.00,,---,0.00,VWS V13.01,2013-07-25 09:35:00,
2013-07-25 04:41:00,61.8,53.8,29.26,SSE,158,0.0,0.0,75,0.00,,---,0.00,VWS V13.01,2013-07-25 09:41:00,
2013-07-25 04:46:00,61.8,53.8,29.26,SSE,158,0.0,0.0,75,0.00,,---,0.00,VWS V13.01,2013-07-25 09:46:00,
2013-07-25 04:51:00,61.8,53.8,29.25,SSE,158,0.0,0.0,75,0.00,,---,0.00,VWS V13.01,2013-07-25 09:51:00,
2013-07-25 04:56:00,61.8,53.8,29.26,SSE,158,0.0,0.0,75,0.00,,---,0.00,VWS V13.01,2013-07-25 09:56:00,
2013-07-25 05:01:00,61.8,53.8,29.26,SSE,158,0.0,0.0,75,0.00,,---,0.00,VWS V13.01,2013-07-25 10:01:00,
2013-07-25 05:06:00,61.7,53.7,29.26,SSE,158,0.0,0.0,75,0.00,,---,0.00,VWS V13.01,2013-07-25 10:06:00,
2013-07-25 05:11:00,61.5,53.5,29.26,SSE,158,0.0,0.0,75,0.00,,---,0.00,VWS V13.01,2013-07-25 10:11:00,
2013-07-25 05:16:00,61.5,53.5,29.26,SSE,158,0.0,0.0,75,0.00,,---,0.00,VWS V13.01,2013-07-25 10:16:00,
2013-07-25 05:22:00,61.5,53.5,29.25,SSE,158,0.0,0.0,75,0.00,,---,0.00,VWS V13.01,2013-07-25 10:22:00,
2013-07-25 05:27:00,61.3,53.3,29.25,SSE,158,0.0,0.0,75,0.00,,---,0.00,VWS V13.01,2013-07-25 10:27:00,
2013-07-25 05:32:00,61.3,53.7,29.25,SSE,158,0.0,0.0,76,0.00,,---,0.00,VWS V13.01,2013-07-25 10:32:00,
2013-07-25 05:37:00,61.1,53.5,29.24,SE,135,0.0,0.0,76,0.00,,---,0.00,VWS V13.01,2013-07-25 10:37:00,
2013-07-25 05:42:00,60.9,53.3,29.25,SE,135,0.0,0.0,76,0.00,,---,0.00,VWS V13.01,2013-07-25 10:42:00,
2013-07-25 05:47:00,60.9,53.3,29.25,SE,135,0.0,0.0,76,0.00,,---,0.00,VWS V13.01,2013-07-25 10:47:00,
2013-07-25 05:52:00,60.9,53.3,29.25,SE,135,0.0,0.0,76,0.00,,---,0.00,VWS V13.01,2013-07-25 10:52:00,
2013-07-25 05:57:00,60.8,53.2,29.25,SE,135,0.0,0.0,76,0.00,,---,0.00,VWS V13.01,2013-07-25 10:57:00,
2013-07-25 06:02:00,60.6,53.0,29.25,SE,135,0.0,0.0,76,0.00,,---,0.00,VWS V13.01,2013-07-25 11:02:00,
2013-07-25 06:07:00,60.6,53.0,29.25,SE,135,0.0,0.0,76,0.00,,---,0.00,VWS V13.01,2013-07-25 11:07:00,
2013-07-25 06:13:00,60.6,53.4,29.25,SE,135,0.0,0.0,77,0.00,,---,0.00,VWS V13.01,2013-07-25 11:13:00,
2013-07-25 06:18:00,60.6,53.4,29.25,SE,135,0.0,0.0,77,0.00,,---,0.00,VWS V13.01,2013-07-25 11:18:00,
2013-07-25 06:23:00,60.6,53.4,29.25,SE,135,0.0,0.0,77,0.00,,---,0.00,VWS V13.01,2013-07-25 11:23:00,
2013-07-25 06:28:00,60.6,53.4,29.25,SE,135,0.0,0.0,77,0.00,,---,0.00,VWS V13.01,2013-07-25 11:28:00,
2013-07-25 06:33:00,60.6,53.4,29.25,SE,135,0.0,0.0,77,0.00,,---,0.00,VWS V13.01,2013-07-25 11:33:00,
2013-07-25 06:38:00,60.6,53.4,29.25,SE,135,0.0,0.0,77,0.00,,---,0.00,VWS V13.01,2013-07-25 11:38:00,
2013-07-25 06:43:00,60.6,53.4,29.25,SE,135,0.0,0.0,77,0.00,,---,0.00,VWS V13.01,2013-07-25 11:43:00,
2013-07-25 06:48:00,60.6,53.4,29.25,SE,135,0.0,0.0,77,0.00,,---,0.00,VWS V13.01,2013-07-25 11:48:00,
2013-07-25 06:53:00,60.6,53.4,29.25,SE,135,0.0,0.0,77,0.00,,---,0.00,VWS V13.01,2013-07-25 11:53:00,
2013-07-25 06:58:00,60.6,53.7,29.26,SE,135,0.0,0.0,78,0.00,,---,0.00,VWS V13.01,2013-07-25 11:58:00,
2013-07-25 07:03:00,60.6,53.7,29.26,SE,135,0.0,0.0,78,0.00,,---,0.00,VWS V13.01,2013-07-25 12:03:00,
2013-07-25 07:08:00,60.6,53.7,29.26,SE,135,0.0,0.0,78,0.00,,---,0.00,VWS V13.01,2013-07-25 12:08:00,
2013-07-25 07:13:00,60.6,53.7,29.25,SSE,158,0.0,0.0,78,0.00,,---,0.00,VWS V13.01,2013-07-25 12:13:00,
2013-07-25 07:18:00,60.9,54.3,29.25,SSE,158,0.0,0.0,79,0.00,,---,0.00,VWS V13.01,2013-07-25 12:18:00,
2013-07-25 07:23:00,60.9,54.3,29.25,SSE,158,0.0,0.0,79,0.00,,---,0.00,VWS V13.01,2013-07-25 12:23:00,
2013-07-25 07:28:00,61.3,54.7,29.26,SSE,158,0.0,0.0,79,0.00,,---,0.00,VWS V13.01,2013-07-25 12:28:00,
2013-07-25 07:33:00,61.5,54.9,29.25,South,180,0.0,0.0,79,0.00,,---,0.00,VWS V13.01,2013-07-25 12:33:00,
2013-07-25 07:38:00,61.7,55.1,29.26,South,180,0.0,0.0,79,0.00,,---,0.00,VWS V13.01,2013-07-25 12:38:00,
2013-07-25 07:43:00,61.8,55.2,29.26,SSE,158,0.0,0.0,79,0.00,,---,0.00,VWS V13.01,2013-07-25 12:43:00,
2013-07-25 07:48:00,62.2,55.6,29.26,SSE,158,0.0,0.0,79,0.00,,---,0.00,VWS V13.01,2013-07-25 12:48:00,
2013-07-25 07:53:00,62.4,56.2,29.26,SSE,158,0.0,0.0,80,0.00,,---,0.00,VWS V13.01,2013-07-25 12:53:00,
2013-07-25 07:58:00,62.7,56.5,29.26,SSE,158,0.0,0.0,80,0.00,,---,0.00,VWS V13.01,2013-07-25 12:58:00,
2013-07-25 08:03:00,63.1,56.8,29.26,SSE,158,0.0,0.0,80,0.00,,---,0.00,VWS V13.01,2013-07-25 13:03:00,
2013-07-25 08:08:00,63.6,57.3,29.27,SSE,158,0.0,0.0,80,0.00,,---,0.00,VWS V13.01,2013-07-25 13:08:00,
2013-07-25 08:13:00,63.8,57.5,29.26,SSW,202,0.0,0.0,80,0.00,,---,0.00,VWS V13.01,2013-07-25 13:13:00,
2013-07-25 08:18:00,64.2,57.9,29.26,SSW,202,0.0,0.0,80,0.00,,---,0.00,VWS V13.01,2013-07-25 13:18:00,
2013-07-25 08:23:00,64.5,57.8,29.26,SSW,202,0.0,0.0,79,0.00,,---,0.00,VWS V13.01,2013-07-25 13:23:00,
2013-07-25 08:28:00,64.9,58.2,29.26,SSW,202,0.0,0.0,79,0.00,,---,0.00,VWS V13.01,2013-07-25 13:28:00,
2013-07-25 08:33:00,65.3,58.6,29.26,SSW,202,0.0,0.0,79,0.00,,---,0.00,VWS V13.01,2013-07-25 13:33:00,
2013-07-25 08:38:00,65.8,59.1,29.26,SSW,202,0.0,0.0,79,0.00,,---,0.00,VWS V13.01,2013-07-25 13:38:00,
2013-07-25 08:43:00,66.0,59.3,29.26,SSW,202,0.0,0.0,79,0.00,,---,0.00,VWS V13.01,2013-07-25 13:43:00,
2013-07-25 08:49:00,66.5,59.4,29.26,SSW,202,0.0,0.0,78,0.00,,---,0.00,VWS V13.01,2013-07-25 13:49:00,
2013-07-25 08:54:00,66.9,59.8,29.26,SSW,202,0.0,0.0,78,0.00,,---,0.00,VWS V13.01,2013-07-25 13:54:00,
2013-07-25 08:59:00,67.4,60.3,29.27,SSW,202,0.0,0.0,78,0.00,,---,0.00,VWS V13.01,2013-07-25 13:59:00,
2013-07-25 09:04:00,68.0,60.5,29.26,SSW,202,0.0,0.0,77,0.00,,---,0.00,VWS V13.01,2013-07-25 14:04:00,
2013-07-25 09:09:00,68.3,60.5,29.27,South,180,0.0,0.0,76,0.00,,---,0.00,VWS V13.01,2013-07-25 14:09:00,
2013-07-25 09:14:00,68.9,60.7,29.26,SW,225,0.0,0.0,75,0.00,,---,0.00,VWS V13.01,2013-07-25 14:14:00,
2013-07-25 09:19:00,69.4,60.8,29.26,SW,225,0.0,0.0,74,0.00,,---,0.00,VWS V13.01,2013-07-25 14:19:00,
2013-07-25 09:24:00,69.9,61.2,29.26,WSW,248,0.0,0.0,74,0.00,,---,0.00,VWS V13.01,2013-07-25 14:24:00,
2013-07-25 09:29:00,70.3,61.2,29.26,SSW,202,0.0,0.0,73,0.00,,---,0.00,VWS V13.01,2013-07-25 14:29:00,
2013-07-25 09:34:00,70.8,61.3,29.26,SSW,202,0.0,16.4,72,0.00,,---,0.00,VWS V13.01,2013-07-25 14:34:00,
2013-07-25 09:39:00,71.2,61.7,29.26,WNW,292,0.0,0.0,72,0.00,,---,0.00,VWS V13.01,2013-07-25 14:39:00,
2013-07-25 09:44:00,71.4,61.5,29.26,SSW,202,0.0,0.0,71,0.00,,---,0.00,VWS V13.01,2013-07-25 14:44:00,
2013-07-25 09:49:00,72.1,62.2,29.26,SSW,202,0.0,0.0,71,0.00,,---,0.00,VWS V13.01,2013-07-25 14:49:00,
2013-07-25 09:54:00,72.5,62.2,29.26,West,270,0.0,0.0,70,0.00,,---,0.00,VWS V13.01,2013-07-25 14:54:00,
2013-07-25 09:59:00,73.0,62.2,29.26,West,270,11.6,11.6,69,0.00,,---,0.00,VWS V13.01,2013-07-25 14:59:00,
2013-07-25 10:04:00,73.5,62.7,29.25,West,270,0.0,0.0,69,0.00,,---,0.00,VWS V13.01,2013-07-25 15:04:00,
2013-07-25 10:09:00,73.9,63.1,29.25,SW,225,0.0,0.0,69,0.00,,---,0.00,VWS V13.01,2013-07-25 15:09:00,
2013-07-25 10:14:00,74.3,63.1,29.25,SSW,202,0.0,0.0,68,0.00,,---,0.00,VWS V13.01,2013-07-25 15:14:00,
2013-07-25 10:19:00,74.4,62.7,29.26,WNW,292,0.0,0.0,67,0.00,,---,0.00,VWS V13.01,2013-07-25 15:19:00,
2013-07-25 10:24:00,75.0,62.9,29.26,West,270,0.0,0.0,66,0.00,,---,0.00,VWS V13.01,2013-07-25 15:24:00,
2013-07-25 10:29:00,75.5,63.4,29.26,WNW,292,19.2,19.2,66,0.00,,---,0.00,VWS V13.01,2013-07-25 15:29:00,
2013-07-25 10:34:00,75.9,62.9,29.26,WNW,292,0.0,0.0,64,0.00,,---,0.00,VWS V13.01,2013-07-25 15:34:00,
2013-07-25 10:39:00,75.9,62.9,29.25,South,180,0.0,0.0,64,0.00,,---,0.00,VWS V13.01,2013-07-25 15:39:00,
2013-07-25 10:44:00,76.2,62.7,29.26,WSW,248,0.0,16.0,63,0.00,,---,0.00,VWS V13.01,2013-07-25 15:44:00,
2013-07-25 10:49:00,76.8,63.3,29.26,WSW,248,0.0,0.0,63,0.00,,---,0.00,VWS V13.01,2013-07-25 15:49:00,
2013-07-25 10:54:00,77.1,63.5,29.26,WNW,292,0.0,0.0,63,0.00,,---,0.00,VWS V13.01,2013-07-25 15:54:00,
2013-07-25 10:59:00,77.5,63.5,29.26,WNW,292,4.0,7.0,62,0.00,,---,0.00,VWS V13.01,2013-07-25 15:59:00,
2013-07-25 11:04:00,77.7,63.2,29.27,WNW,292,8.0,8.0,61,0.00,,---,0.00,VWS V13.01,2013-07-25 16:04:00,
2013-07-25 11:09:00,78.0,63.5,29.27,SW,225,0.0,0.0,61,0.00,,---,0.00,VWS V13.01,2013-07-25 16:09:00,
2013-07-25 11:14:00,78.6,63.6,29.26,West,270,3.0,3.0,60,0.00,,---,0.00,VWS V13.01,2013-07-25 16:14:00,
2013-07-25 11:19:00,78.8,63.3,29.27,West,270,0.0,0.0,59,0.00,,---,0.00,VWS V13.01,2013-07-25 16:19:00,
2013-07-25 11:24:00,78.9,63.4,29.26,WSW,248,0.0,0.0,59,0.00,,---,0.00,VWS V13.01,2013-07-25 16:24:00,
2013-07-25 11:29:00,79.1,63.6,29.26,West,270,0.0,0.0,59,0.00,,---,0.00,VWS V13.01,2013-07-25 16:29:00,
2013-07-25 11:34:00,79.5,63.9,29.26,SW,225,9.2,9.2,59,0.00,,---,0.00,VWS V13.01,2013-07-25 16:34:00,
2013-07-25 11:39:00,79.8,64.7,29.26,West,270,0.0,0.0,60,0.00,,---,0.00,VWS V13.01,2013-07-25 16:39:00,
2013-07-25 11:45:00,80.2,64.1,29.27,West,270,3.0,3.0,58,0.00,,---,0.00,VWS V13.01,2013-07-25 16:45:00,
2013-07-25 11:50:00,80.2,64.1,29.26,West,270,0.0,0.0,58,0.00,,---,0.00,VWS V13.01,2013-07-25 16:50:00,
2013-07-25 11:55:00,80.4,64.3,29.26,SW,225,0.0,0.0,58,0.00,,---,0.00,VWS V13.01,2013-07-25 16:55:00,
2013-07-25 12:00:00,80.7,64.6,29.26,SSW,202,0.0,0.0,58,0.00,,---,0.00,VWS V13.01,2013-07-25 17:00:00,
2013-07-25 12:05:00,81.1,64.9,29.25,SSW,202,0.0,0.0,58,0.00,,---,0.00,VWS V13.01,2013-07-25 17:05:00,
2013-07-25 12:10:00,81.6,64.9,29.26,NW,315,0.0,0.0,57,0.00,,---,0.00,VWS V13.01,2013-07-25 17:10:00,
2013-07-25 12:15:00,81.6,64.4,29.26,SSE,158,0.0,0.0,56,0.00,,---,0.00,VWS V13.01,2013-07-25 17:15:00,
2013-07-25 12:20:00,82.0,65.3,29.26,NW,315,4.4,4.4,57,0.00,,---,0.00,VWS V13.01,2013-07-25 17:20:00,
2013-07-25 12:25:00,82.0,64.3,29.26,SW,225,0.0,0.0,55,0.00,,---,0.00,VWS V13.01,2013-07-25 17:25:00,
2013-07-25 12:30:00,82.0,64.3,29.26,West,270,0.0,0.0,55,0.00,,---,0.00,VWS V13.01,2013-07-25 17:30:00,
2013-07-25 12:35:00,82.2,65.0,29.25,SW,225,0.0,0.0,56,0.00,,---,0.00,VWS V13.01,2013-07-25 17:35:00,
2013-07-25 12:40:00,82.5,64.7,29.25,NW,315,0.0,0.0,55,0.00,,---,0.00,VWS V13.01,2013-07-25 17:40:00,
2013-07-25 12:45:00,82.5,64.7,29.26,SSW,202,8.0,8.0,55,0.00,,---,0.00,VWS V13.01,2013-07-25 17:45:00,
2013-07-25 12:50:00,82.9,65.1,29.25,SSW,202,0.0,0.0,55,0.00,,---,0.00,VWS V13.01,2013-07-25 17:50:00,
2013-07-25 12:55:00,83.1,65.3,29.25,SSE,158,0.0,0.0,55,0.00,,---,0.00,VWS V13.01,2013-07-25 17:55:00,
2013-07-25 13:00:00,83.1,64.8,29.25,SSW,202,0.0,0.0,54,0.00,,---,0.00,VWS V13.01,2013-07-25 18:00:00,
2013-07-25 13:05:00,83.1,64.2,29.25,SSW,202,0.0,0.0,53,0.00,,---,0.00,VWS V13.01,2013-07-25 18:05:00,
2013-07-25 13:10:00,83.4,64.5,29.25,South,180,0.0,0.0,53,0.00,,---,0.00,VWS V13.01,2013-07-25 18:10:00,
2013-07-25 13:15:00,83.6,65.2,29.25,South,180,0.0,0.0,54,0.00,,---,0.00,VWS V13.01,2013-07-25 18:15:00,
2013-07-25 13:20:00,84.0,65.1,29.25,SSW,202,0.0,0.0,53,0.00,,---,0.00,VWS V13.01,2013-07-25 18:20:00,
2013-07-25 13:25:00,84.3,65.9,29.24,SSW,202,15.2,15.2,54,0.00,,---,0.00,VWS V13.01,2013-07-25 18:25:00,
2013-07-25 13:30:00,84.7,65.7,29.23,SSE,158,0.0,0.0,53,0.00,,---,0.00,VWS V13.01,2013-07-25 18:30:00,
2013-07-25 13:35:00,85.1,65.5,29.23,South,180,0.0,0.0,52,0.00,,---,0.00,VWS V13.01,2013-07-25 18:35:00,
2013-07-25 13:40:00,85.6,66.0,29.23,SSW,202,0.0,0.0,52,0.00,,---,0.00,VWS V13.01,2013-07-25 18:40:00,
2013-07-25 13:46:00,86.0,65.8,29.23,SSW,202,1.2,1.2,51,0.00,,---,0.00,VWS V13.01,2013-07-25 18:46:00,
2013-07-25 13:51:00,86.3,66.1,29.22,South,180,0.0,5.8,51,0.00,,---,0.00,VWS V13.01,2013-07-25 18:51:00,
2013-07-25 13:56:00,86.5,66.2,29.22,SW,225,0.0,0.0,51,0.00,,---,0.00,VWS V13.01,2013-07-25 18:56:00,
2013-07-25 14:01:00,86.5,65.7,29.22,SE,135,0.0,0.0,50,0.00,,---,0.00,VWS V13.01,2013-07-25 19:01:00,
2013-07-25 14:06:00,86.5,65.7,29.22,SSW,202,0.0,13.8,50,0.00,,---,0.00,VWS V13.01,2013-07-25 19:06:00,
2013-07-25 14:11:00,86.3,65.5,29.22,SSW,202,0.0,0.0,50,0.00,,---,0.00,VWS V13.01,2013-07-25 19:11:00,
2013-07-25 14:16:00,86.0,64.6,29.21,SSW,202,4.4,13.4,49,0.00,,---,0.00,VWS V13.01,2013-07-25 19:16:00,
2013-07-25 14:21:00,85.8,64.4,29.21,South,180,6.2,6.2,49,0.00,,---,0.00,VWS V13.01,2013-07-25 19:21:00,
2013-07-25 14:26:00,85.8,64.4,29.22,South,180,13.4,13.4,49,0.00,,---,0.00,VWS V13.01,2013-07-25 19:26:00,
2013-07-25 14:31:00,85.6,64.8,29.21,SE,135,0.0,0.0,50,0.00,,---,0.00,VWS V13.01,2013-07-25 19:31:00,
2013-07-25 14:37:00,85.6,64.8,29.21,SSW,202,0.0,0.0,50,0.00,,---,0.00,VWS V13.01,2013-07-25 19:37:00,
2013-07-25 14:42:00,86.1,64.7,29.20,South,180,0.0,13.8,49,0.00,,---,0.00,VWS V13.01,2013-07-25 19:42:00,
2013-07-25 14:47:00,86.3,64.9,29.21,SW,225,14.2,14.2,49,0.00,,---,0.00,VWS V13.01,2013-07-25 19:47:00,
2013-07-25 14:52:00,86.7,65.3,29.22,SSW,202,0.0,0.0,49,0.00,,---,0.00,VWS V13.01,2013-07-25 19:52:00,
2013-07-25 14:57:00,87.6,65.5,29.21,South,180,14.2,14.2,48,0.00,,---,0.00,VWS V13.01,2013-07-25 19:57:00,
2013-07-25 15:02:00,87.9,65.8,29.21,SSW,202,0.0,0.0,48,0.00,,---,0.00,VWS V13.01,2013-07-25 20:02:00,
2013-07-25 15:07:00,88.3,66.1,29.21,South,180,0.0,0.0,48,0.00,,---,0.00,VWS V13.01,2013-07-25 20:07:00,
2013-07-25 15:12:00,89.0,66.2,29.22,SSW,202,15.2,15.2,47,0.00,,---,0.00,VWS V13.01,2013-07-25 20:12:00,
2013-07-25 15:17:00,89.4,65.3,29.21,SSW,202,21.8,21.8,45,0.00,,---,0.00,VWS V13.01,2013-07-25 20:17:00,
2013-07-25 15:22:00,89.7,65.6,29.21,SSE,158,0.0,0.0,45,0.00,,---,0.00,VWS V13.01,2013-07-25 20:22:00,
2013-07-25 15:27:00,89.7,64.9,29.20,SSE,158,0.0,0.0,44,0.00,,---,0.00,VWS V13.01,2013-07-25 20:27:00,
2013-07-25 15:32:00,89.7,64.9,29.21,South,180,7.6,7.6,44,0.00,,---,0.00,VWS V13.01,2013-07-25 20:32:00,
2013-07-25 15:37:00,89.9,65.1,29.21,SSE,158,0.0,0.0,44,0.00,,---,0.00,VWS V13.01,2013-07-25 20:37:00,
2013-07-25 15:43:00,89.6,64.8,29.22,South,180,0.0,0.0,44,0.00,,---,0.00,VWS V13.01,2013-07-25 20:43:00,
2013-07-25 15:48:00,88.8,64.1,29.21,South,180,0.0,0.0,44,0.00,,---,0.00,VWS V13.01,2013-07-25 20:48:00,
2013-07-25 15:53:00,88.3,64.3,29.22,SSE,158,0.0,0.0,45,0.00,,---,0.00,VWS V13.01,2013-07-25 20:53:00,
2013-07-25 15:58:00,87.9,64.6,29.22,South,180,0.0,0.0,46,0.00,,---,0.00,VWS V13.01,2013-07-25 20:58:00,
2013-07-25 16:03:00,87.4,64.1,29.23,SSW,202,0.0,11.6,46,0.00,,---,0.00,VWS V13.01,2013-07-25 21:03:00,
2013-07-25 16:08:00,86.7,64.1,29.23,SSW,202,0.0,0.0,47,0.00,,---,0.00,VWS V13.01,2013-07-25 21:08:00,
2013-07-25 16:14:00,86.1,63.5,29.22,SSW,202,6.2,6.2,47,0.00,,---,0.00,VWS V13.01,2013-07-25 21:14:00,
2013-07-25 16:19:00,85.6,63.1,29.23,South,180,0.0,0.0,47,0.00,,---,0.00,VWS V13.01,2013-07-25 21:19:00,
2013-07-25 16:24:00,85.1,63.2,29.23,South,180,0.0,0.0,48,0.00,,---,0.00,VWS V13.01,2013-07-25 21:24:00,
2013-07-25 16:29:00,83.8,62.0,29.25,NNE,22,3.4,8.4,48,0.00,,---,0.00,VWS V13.01,2013-07-25 21:29:00,
2013-07-25 16:34:00,81.3,60.3,29.25,North,0,12.0,12.0,49,0.00,,---,0.00,VWS V13.01,2013-07-25 21:34:00,
2013-07-25 16:40:00,78.0,59.5,29.25,NE,45,0.0,0.0,53,0.00,,---,0.00,VWS V13.01,2013-07-25 21:40:00,
2013-07-25 16:45:00,76.8,58.9,29.24,NE,45,0.0,0.0,54,0.00,,---,0.00,VWS V13.01,2013-07-25 21:45:00,
2013-07-25 16:50:00,75.3,58.0,29.24,North,0,0.0,0.0,55,0.00,,---,0.00,VWS V13.01,2013-07-25 21:50:00,
2013-07-25 16:55:00,73.9,57.7,29.25,NNE,22,0.0,0.0,57,0.00,,---,0.00,VWS V13.01,2013-07-25 21:55:00,
2013-07-25 17:00:00,73.5,57.8,29.24,NNE,22,0.0,0.0,58,0.00,,---,0.00,VWS V13.01,2013-07-25 22:00:00,
2013-07-25 17:05:00,72.6,57.5,29.24,ENE,68,0.0,0.0,59,0.00,,---,0.00,VWS V13.01,2013-07-25 22:05:00,
2013-07-25 17:10:00,72.3,58.6,29.25,WNW,292,0.0,0.0,62,0.00,,---,0.00,VWS V13.01,2013-07-25 22:10:00,
2013-07-25 17:15:00,71.7,58.5,29.25,WNW,292,0.0,0.0,63,0.02,,---,0.02,VWS V13.01,2013-07-25 22:15:00,
2013-07-25 17:20:00,70.1,59.1,29.27,NNW,338,3.0,3.0,68,0.08,,---,0.08,VWS V13.01,2013-07-25 22:20:00,
2013-07-25 17:25:00,68.7,58.5,29.29,North,0,10.6,10.6,70,0.16,,---,0.17,VWS V13.01,2013-07-25 22:25:00,
2013-07-25 17:30:00,67.8,58.8,29.28,North,0,4.0,4.0,73,0.20,,---,0.20,VWS V13.01,2013-07-25 22:30:00,
2013-07-25 17:35:00,66.7,58.5,29.27,NNE,22,0.0,0.0,75,0.41,,---,0.41,VWS V13.01,2013-07-25 22:35:00,
2013-07-25 17:40:00,66.3,58.2,29.27,NNE,22,0.0,0.0,75,0.41,,---,0.41,VWS V13.01,2013-07-25 22:40:00,
2013-07-25 17:45:00,66.3,58.5,29.25,NNE,22,0.0,0.0,76,0.44,,---,0.45,VWS V13.01,2013-07-25 22:45:00,
2013-07-25 17:50:00,66.3,58.5,29.25,NNE,22,0.0,0.0,76,0.47,,---,0.47,VWS V13.01,2013-07-25 22:50:00,
2013-07-25 17:55:00,66.2,58.4,29.27,North,0,0.0,0.0,76,0.47,,---,0.47,VWS V13.01,2013-07-25 22:55:00,
2013-07-25 18:00:00,66.0,58.2,29.26,NNE,22,0.0,0.0,76,0.49,,---,0.49,VWS V13.01,2013-07-25 23:00:00,
2013-07-25 18:05:00,66.0,58.2,29.26,NNE,22,0.0,0.0,76,0.49,,---,0.49,VWS V13.01,2013-07-25 23:05:00,
2013-07-25 18:10:00,66.0,58.6,29.24,NNE,22,0.0,0.0,77,0.49,,---,0.49,VWS V13.01,2013-07-25 23:10:00,
2013-07-25 18:15:00,66.0,58.6,29.24,NNE,22,0.0,0.0,77,0.44,,---,0.49,VWS V13.01,2013-07-25 23:15:00,
2013-07-25 18:20:00,66.0,58.6,29.24,SE,135,0.0,0.0,77,0.39,,---,0.51,VWS V13.01,2013-07-25 23:20:00,
2013-07-25 18:25:00,66.0,58.6,29.23,SE,135,0.0,0.0,77,0.35,,---,0.51,VWS V13.01,2013-07-25 23:25:00,
2013-07-25 18:30:00,66.0,58.6,29.21,SE,135,0.0,0.0,77,0.18,,---,0.51,VWS V13.01,2013-07-25 23:30:00,
2013-07-25 18:35:00,65.8,58.8,29.22,SE,135,0.0,0.0,78,0.10,,---,0.51,VWS V13.01,2013-07-25 23:35:00,
2013-07-25 18:40:00,65.8,58.8,29.23,SE,135,0.0,0.0,78,0.10,,---,0.51,VWS V13.01,2013-07-25 23:40:00,
2013-07-25 18:45:00,65.8,58.8,29.23,SE,135,0.0,0.0,78,0.06,,---,0.51,VWS V13.01,2013-07-25 23:45:00,
2013-07-25 18:50:00,65.8,59.1,29.22,SE,135,0.0,0.0,79,0.04,,---,0.51,VWS V13.01,2013-07-25 23:50:00,
2013-07-25 18:55:00,65.6,58.9,29.23,SE,135,0.0,0.0,79,0.04,,---,0.51,VWS V13.01,2013-07-25 23:55:00,
2013-07-25 19:00:00,65.8,59.1,29.22,SE,135,0.0,0.0,79,0.02,,---,0.51,VWS V13.01,2013-07-26 00:00:00,
2013-07-25 19:05:00,65.8,59.1,29.22,SE,135,0.0,0.0,79,0.02,,---,0.51,VWS V13.01,2013-07-26 00:05:00,
2013-07-25 19:10:00,65.8,59.1,29.22,SE,135,0.0,0.0,79,0.02,,---,0.51,VWS V13.01,2013-07-26 00:10:00,
2013-07-25 19:15:00,65.8,59.1,29.22,SE,135,0.0,0.0,79,0.00,,---,0.51,VWS V13.01,2013-07-26 00:15:00,
2013-07-25 19:20:00,65.8,59.1,29.22,SE,135,0.0,0.0,79,0.00,,---,0.51,VWS V13.01,2013-07-26 00:20:00,
2013-07-25 19:25:00,65.8,59.1,29.23,SE,135,0.0,0.0,79,0.00,,---,0.51,VWS V13.01,2013-07-26 00:25:00,
2013-07-25 19:30:00,65.8,59.1,29.23,SSE,158,2.2,2.2,79,0.00,,---,0.51,VWS V13.01,2013-07-26 00:30:00,
2013-07-25 19:35:00,65.6,59.3,29.23,SE,135,0.0,0.0,80,0.00,,---,0.51,VWS V13.01,2013-07-26 00:35:00,
2013-07-25 19:40:00,65.4,59.1,29.23,SE,135,0.0,0.0,80,0.00,,---,0.51,VWS V13.01,2013-07-26 00:40:00,
2013-07-25 19:45:00,65.4,59.1,29.23,SE,135,0.0,0.0,80,0.00,,---,0.51,VWS V13.01,2013-07-26 00:45:00,
2013-07-25 19:50:00,65.4,59.1,29.23,SE,135,0.0,0.0,80,0.00,,---,0.51,VWS V13.01,2013-07-26 00:50:00,
2013-07-25 19:56:00,65.4,59.1,29.23,SE,135,0.0,0.0,80,0.00,,---,0.51,VWS V13.01,2013-07-26 00:56:00,
2013-07-25 20:01:00,65.4,59.1,29.22,SE,135,0.0,0.0,80,0.02,,---,0.53,VWS V13.01,2013-07-26 01:01:00,
2013-07-25 20:06:00,65.4,59.1,29.22,SE,135,0.0,0.0,80,0.02,,---,0.53,VWS V13.01,2013-07-26 01:06:00,
2013-07-25 20:11:00,65.4,59.4,29.21,SE,135,0.0,0.0,81,0.02,,---,0.53,VWS V13.01,2013-07-26 01:11:00,
2013-07-25 20:16:00,65.3,59.3,29.21,SE,135,0.0,0.0,81,0.02,,---,0.53,VWS V13.01,2013-07-26 01:16:00,
2013-07-25 20:21:00,65.3,59.3,29.21,SE,135,0.0,0.0,81,0.02,,---,0.53,VWS V13.01,2013-07-26 01:21:00,
2013-07-25 20:26:00,65.1,59.1,29.23,SE,135,0.0,0.0,81,0.02,,---,0.53,VWS V13.01,2013-07-26 01:26:00,
2013-07-25 20:31:00,65.1,59.5,29.22,SE,135,0.0,0.0,82,0.02,,---,0.53,VWS V13.01,2013-07-26 01:31:00,
2013-07-25 20:36:00,65.1,59.5,29.23,SE,135,0.0,0.0,82,0.02,,---,0.53,VWS V13.01,2013-07-26 01:36:00,
2013-07-25 20:41:00,65.3,59.7,29.23,SE,135,0.0,0.0,82,0.02,,---,0.53,VWS V13.01,2013-07-26 01:41:00,
2013-07-25 20:46:00,65.3,59.7,29.23,SE,135,0.0,0.0,82,0.04,,---,0.55,VWS V13.01,2013-07-26 01:46:00,
2013-07-25 20:51:00,65.3,59.7,29.23,SE,135,0.0,0.0,82,0.06,,---,0.57,VWS V13.01,2013-07-26 01:51:00,
2013-07-25 20:56:00,65.3,59.7,29.24,SE,135,0.0,0.0,82,0.06,,---,0.57,VWS V13.01,2013-07-26 01:56:00,
2013-07-25 21:01:00,65.3,59.7,29.25,SE,135,0.0,0.0,82,0.04,,---,0.57,VWS V13.01,2013-07-26 02:01:00,
2013-07-25 21:06:00,65.3,59.7,29.26,SSE,158,0.0,0.0,82,0.04,,---,0.57,VWS V13.01,2013-07-26 02:06:00,
2013-07-25 21:11:00,65.3,59.7,29.25,SSW,202,0.0,0.0,82,0.06,,---,0.59,VWS V13.01,2013-07-26 02:11:00,
2013-07-25 21:16:00,65.3,60.0,29.25,South,180,3.4,6.2,83,0.08,,---,0.61,VWS V13.01,2013-07-26 02:16:00,
2013-07-25 21:20:00,65.3,60.0,29.25,South,180,0.0,0.0,83,0.08,,---,0.61,VWS V13.01,2013-07-26 02:20:00,
2013-07-25 21:25:00,65.3,60.0,29.25,SSW,202,0.0,0.0,83,0.10,,---,0.63,VWS V13.01,2013-07-26 02:25:00,
2013-07-25 21:30:00,65.3,60.0,29.25,ESE,112,0.0,0.0,83,0.10,,---,0.63,VWS V13.01,2013-07-26 02:30:00,
2013-07-25 21:35:00,65.3,60.3,29.25,SE,135,0.0,0.0,84,0.12,,---,0.65,VWS V13.01,2013-07-26 02:35:00,
2013-07-25 21:40:00,65.3,60.3,29.24,SE,135,0.0,0.0,84,0.12,,---,0.65,VWS V13.01,2013-07-26 02:40:00,
2013-07-25 21:45:00,65.1,60.2,29.23,SE,135,7.0,7.0,84,0.12,,---,0.65,VWS V13.01,2013-07-26 02:45:00,
2013-07-25 21:50:00,65.1,60.2,29.24,SSE,158,3.0,3.0,84,0.08,,---,0.65,VWS V13.01,2013-07-26 02:50:00,
2013-07-25 21:55:00,65.1,60.2,29.24,South,180,0.0,7.6,84,0.08,,---,0.65,VWS V13.01,2013-07-26 02:55:00,
2013-07-25 22:00:00,65.1,60.2,29.23,SSE,158,0.0,0.0,84,0.08,,---,0.65,VWS V13.01,2013-07-26 03:00:00,
2013-07-25 22:05:00,65.1,60.5,29.23,SSE,158,7.6,7.6,85,0.08,,---,0.65,VWS V13.01,2013-07-26 03:05:00,
2013-07-25 22:10:00,65.1,60.5,29.22,SE,135,0.4,10.2,85,0.06,,---,0.65,VWS V13.01,2013-07-26 03:10:00,
2013-07-25 22:15:00,65.1,60.5,29.22,SE,135,21.4,21.4,85,0.04,,---,0.65,VWS V13.01,2013-07-26 03:15:00,
2013-07-25 22:20:00,65.1,60.5,29.23,SE,135,0.0,0.0,85,0.04,,---,0.65,VWS V13.01,2013-07-26 03:20:00,
2013-07-25 22:25:00,65.1,60.5,29.23,SE,135,9.2,9.2,85,0.02,,---,0.65,VWS V13.01,2013-07-26 03:25:00,
2013-07-25 22:30:00,65.1,60.5,29.23,ESE,112,12.0,12.0,85,0.00,,---,0.65,VWS V13.01,2013-07-26 03:30:00,
2013-07-25 22:35:00,65.1,60.5,29.23,SW,225,17.0,20.0,85,0.00,,---,0.65,VWS V13.01,2013-07-26 03:35:00,
2013-07-25 22:40:00,64.9,60.3,29.23,SE,135,0.0,0.0,85,0.00,,---,0.65,VWS V13.01,2013-07-26 03:40:00,
2013-07-25 22:45:00,64.9,60.3,29.23,SE,135,0.0,0.0,85,0.00,,---,0.65,VWS V13.01,2013-07-26 03:45:00,
2013-07-25 22:50:00,64.9,60.3,29.23,SW,225,5.8,13.8,85,0.00,,---,0.65,VWS V13.01,2013-07-26 03:50:00,
2013-07-25 22:55:00,64.9,60.3,29.23,SSE,158,0.0,1.6,85,0.00,,---,0.65,VWS V13.01,2013-07-26 03:55:00,
2013-07-25 23:00:00,64.7,60.1,29.23,South,180,0.0,0.0,85,0.00,,---,0.65,VWS V13.01,2013-07-26 04:00:00,
2013-07-25 23:01:00,64.7,60.1,29.23,SSW,202,0.0,0.0,85,0.00,,---,0.65,VWS V13.01,2013-07-26 04:01:00,
2013-07-25 23:02:00,64.7,60.1,29.23,SSW,202,0.0,0.0,85,0.00,,---,0.65,VWS V13.01,2013-07-26 04:02:00,
2013-07-25 23:03:00,64.7,60.1,29.23,WSW,248,9.8,9.8,85,0.00,,---,0.65,VWS V13.01,2013-07-26 04:03:00,
2013-07-25 23:06:00,64.7,60.1,29.22,SSE,158,0.0,0.0,85,0.00,,---,0.65,VWS V13.01,2013-07-26 04:06:00,
2013-07-25 23:12:00,64.7,60.1,29.22,SE,135,0.0,0.0,85,0.00,,---,0.65,VWS V13.01,2013-07-26 04:12:00,
2013-07-25 23:17:00,64.5,59.9,29.22,South,180,4.4,4.4,85,0.00,,---,0.65,VWS V13.01,2013-07-26 04:17:00,
2013-07-25 23:22:00,64.5,59.9,29.23,SE,135,0.0,29.0,85,0.00,,---,0.65,VWS V13.01,2013-07-26 04:22:00,
2013-07-25 23:27:00,64.5,59.9,29.23,SSE,158,0.0,5.8,85,0.00,,---,0.65,VWS V13.01,2013-07-26 04:27:00,
2013-07-25 23:32:00,64.5,59.9,29.22,SSW,202,12.0,12.0,85,0.00,,---,0.65,VWS V13.01,2013-07-26 04:32:00,
2013-07-25 23:37:00,64.5,59.9,29.22,SSW,202,8.4,8.4,85,0.00,,---,0.65,VWS V13.01,2013-07-26 04:37:00,
2013-07-25 23:42:00,64.5,59.9,29.22,SSW,202,0.0,0.0,85,0.00,,---,0.65,VWS V13.01,2013-07-26 04:42:00,
2013-07-25 23:47:00,64.5,59.9,29.21,ESE,112,7.6,7.6,85,0.00,,---,0.65,VWS V13.01,2013-07-26 04:47:00,
2013-07-25 23:52:00,64.7,60.4,29.22,SE,135,0.0,0.0,86,0.00,,---,0.65,VWS V13.01,2013-07-26 04:52:00,
2013-07-25 23:57:00,64.7,60.4,29.22,SSE,158,0.0,4.8,86,0.00,,---,0.65,VWS V13.01,2013-07-26 04:57:00,